Time;durP1;ratioP1;P1;durP2;ratioP2;P2;SDS_P1;SDS_P2;PMS_P1;PMS_P2;Temp;Humidity;BMP_temperature;BMP_pressure;BME280_temperature;BME280_humidity;BME280_pressure;Samples;Min_cycle;Max_cycle;Signal;HPM_P1;HPM_P2
2021/03/20 00:01:31;;;;;;;21.63;9.68;;;;;;;8.30;69.21;71476.00;4951262;29;20036;-87
2021/03/20 00:03:59;;;;;;;21.42;9.73;;;;;;;8.17;68.26;71466.03;4955432;28;20023;-84
2021/03/20 00:06:34;;;;;;;20.23;10.25;;;;;;;9.16;68.89;71580.25;4940213;28;20090;-85
2021/03/20 00:09:05;;;;;;;25.85;10.13;;;;;;;7.93;68.93;71438.69;4950729;29;20035;-90
2021/03/20 00:11:32;;;;;;;22.23;10.32;;;;;;;8.53;69.28;71507.66;4959873;28;20023;-94
2021/03/20 00:13:59;;;;;;;23.30;10.95;;;;;;;8.58;69.94;71513.03;4963801;29;20026;-92
2021/03/20 00:16:27;;;;;;;18.75;10.65;;;;;;;8.67;70.57;71523.13;4951296;28;20058;-93
2021/03/20 00:18:57;;;;;;;17.13;8.63;;;;;;;7.15;70.90;71346.81;4948450;29;20059;-96
2021/03/20 00:21:26;;;;;;;17.40;9.18;;;;;;;8.43;71.75;71496.34;4936664;29;20082;-93
2021/03/20 00:23:53;;;;;;;27.20;11.90;;;;;;;9.07;72.04;71569.53;4945534;29;20036;-82
2021/03/20 00:26:20;;;;;;;22.13;11.25;;;;;;;7.75;72.91;71417.88;4941142;29;20493;-91
2021/03/20 00:28:47;;;;;;;21.98;9.50;;;;;;;7.98;73.73;71444.03;4940299;29;20043;-89
2021/03/20 00:31:14;;;;;;;21.15;9.57;;;;;;;7.99;74.88;71445.81;4945625;28;20051;-89
2021/03/20 00:33:44;;;;;;;17.20;10.80;;;;;;;8.81;75.80;71539.78;4956591;28;20155;-87
2021/03/20 00:36:13;;;;;;;23.50;9.32;;;;;;;8.79;76.01;71537.41;4951018;28;20346;-91
2021/03/20 00:38:41;;;;;;;26.27;10.52;;;;;;;8.43;76.98;71496.34;4958863;28;20038;-87
2021/03/20 00:41:09;;;;;;;24.67;11.75;;;;;;;7.38;77.40;71376.25;4975030;28;20030;-89
2021/03/20 00:43:37;;;;;;;25.23;11.50;;;;;;;8.74;79.26;71532.06;4959904;28;20114;-89
2021/03/20 00:46:06;;;;;;;24.80;12.38;;;;;;;8.77;80.43;71535.03;4958355;28;20023;-88
2021/03/20 00:48:37;;;;;;;23.25;11.70;;;;;;;8.56;79.75;71510.66;4958309;28;20431;-87
2021/03/20 00:51:04;;;;;;;27.77;12.00;;;;;;;7.69;81.83;71411.34;4951542;28;20392;-88
2021/03/20 00:53:32;;;;;;;34.08;11.57;;;;;;;8.17;82.23;71463.88;4955363;28;20366;-88
2021/03/20 00:55:59;;;;;;;30.10;11.70;;;;;;;7.79;83.02;71423.22;4940292;28;20067;-89
2021/03/20 00:58:28;;;;;;;23.20;13.13;;;;;;;8.33;83.55;71484.47;4956157;28;20027;-89
2021/03/20 01:01:17;;;;;;;24.17;11.65;;;;;;;8.33;84.08;71484.47;4939946;29;20366;-88
2021/03/20 01:03:44;;;;;;;19.25;12.50;;;;;;;7.52;84.64;71392.31;4957463;29;20025;-89
2021/03/20 01:06:15;;;;;;;34.65;14.43;;;;;;;8.03;85.77;71450.56;4957385;29;20491;-88
2021/03/20 01:08:42;;;;;;;24.23;13.25;;;;;;;7.78;85.25;71418.69;4958176;28;20035;-89
2021/03/20 01:11:11;;;;;;;26.85;15.27;;;;;;;7.76;85.77;71416.91;4975492;28;20031;-89
2021/03/20 01:13:38;;;;;;;18.85;13.48;;;;;;;7.29;86.34;71365.56;4958698;28;20027;-89
2021/03/20 01:16:06;;;;;;;29.70;14.07;;;;;;;8.18;86.01;71467.19;4974944;28;20030;-88
2021/03/20 01:18:33;;;;;;;26.70;14.52;;;;;;;6.86;85.72;71316.28;4976713;28;20054;-88
2021/03/20 01:21:00;;;;;;;27.80;15.25;;;;;;;7.85;85.46;71429.16;4966732;28;20027;-87
2021/03/20 01:23:27;;;;;;;25.48;13.32;;;;;;;8.26;85.98;71473.97;4968567;28;20118;-88
2021/03/20 01:25:54;;;;;;;30.02;14.93;;;;;;;7.98;86.78;71444.63;4989092;28;20019;-88
2021/03/20 01:28:29;;;;;;;29.75;16.30;;;;;;;7.09;86.33;71342.41;4988210;28;20031;-88
2021/03/20 01:30:56;;;;;;;29.92;15.02;;;;;;;8.28;87.06;71478.50;4976780;28;20046;-90
2021/03/20 01:33:23;;;;;;;28.38;16.75;;;;;;;7.49;86.07;71388.75;4997531;28;20023;-89
2021/03/20 01:35:50;;;;;;;21.25;13.45;;;;;;;8.42;86.32;71495.16;4982034;28;20121;-88
2021/03/20 01:38:18;;;;;;;19.05;13.75;;;;;;;7.82;86.13;71423.44;4999606;28;20121;-89
2021/03/20 01:40:53;;;;;;;29.92;14.43;;;;;;;8.34;86.67;71483.50;4978052;28;20218;-89
2021/03/20 01:43:23;;;;;;;32.95;16.35;;;;;;;8.28;87.40;71478.50;4978155;28;20488;-87
2021/03/20 01:45:50;;;;;;;29.25;15.13;;;;;;;7.52;86.49;71392.31;4949149;28;20034;-88
2021/03/20 01:48:29;;;;;;;18.45;13.98;;;;;;;6.62;86.47;71288.97;4959471;28;20026;-88
2021/03/20 01:51:02;;;;;;;23.33;14.80;;;;;;;7.17;87.45;71349.19;4958174;28;20034;-88
2021/03/20 01:53:52;;;;;;;23.30;14.93;;;;;;;7.04;87.41;71337.06;4957931;28;20035;-88
2021/03/20 01:56:32;;;;;;;29.33;15.10;;;;;;;8.13;87.36;71461.28;4973943;28;20038;-88
2021/03/20 01:59:00;;;;;;;20.13;13.23;;;;;;;7.77;88.26;71420.25;4957518;28;20282;-88
2021/03/20 02:01:31;;;;;;;24.48;15.60;;;;;;;7.68;88.67;71407.41;4957243;28;20040;-88
2021/03/20 02:04:00;;;;;;;23.27;13.93;;;;;;;7.97;90.41;71442.84;4957542;28;20081;-88
2021/03/20 02:06:28;;;;;;;23.35;15.10;;;;;;;8.21;90.76;71471.38;4957214;28;20027;-88
2021/03/20 02:09:00;;;;;;;30.02;15.75;;;;;;;8.01;90.90;71448.19;4973314;28;20122;-88
2021/03/20 02:11:42;;;;;;;26.27;16.25;;;;;;;8.29;91.28;71474.81;4957769;28;20062;-88
2021/03/20 02:14:11;;;;;;;26.27;16.95;;;;;;;8.02;91.76;71449.38;4957954;28;20030;-88
2021/03/20 02:16:38;;;;;;;28.83;16.45;;;;;;;8.04;91.87;71451.16;4957302;28;20034;-88
2021/03/20 02:19:32;;;;;;;25.30;16.17;;;;;;;7.43;92.51;71381.59;4958209;28;20035;-88
2021/03/20 02:22:06;;;;;;;36.45;19.95;;;;;;;8.17;92.31;71463.28;4980709;28;20139;-87
2021/03/20 02:24:48;;;;;;;27.20;17.60;;;;;;;8.35;92.46;71487.44;4995187;28;20042;-88
2021/03/20 02:27:48;;;;;;;23.65;17.38;;;;;;;8.34;92.34;71480.75;4960318;28;20113;-90
2021/03/20 02:30:24;;;;;;;30.63;17.55;;;;;;;8.33;92.58;71482.31;4957966;28;20031;-89
2021/03/20 02:33:11;;;;;;;27.23;19.90;;;;;;;7.94;91.96;71440.47;4947367;28;20057;-89
2021/03/20 02:35:50;;;;;;;26.80;20.63;;;;;;;8.03;91.72;71449.97;4963164;28;20521;-89
2021/03/20 02:38:24;;;;;;;34.20;21.65;;;;;;;7.79;91.88;71423.22;4957431;28;20428;-89
2021/03/20 02:40:57;;;;;;;30.77;21.05;;;;;;;8.15;91.70;71463.66;4970428;28;20050;-88
2021/03/20 02:43:47;;;;;;;30.88;22.52;;;;;;;8.28;91.47;71476.38;4950927;28;20031;-88
2021/03/20 02:46:39;;;;;;;32.47;22.10;;;;;;;8.24;91.64;71471.00;4955939;28;20034;-88
2021/03/20 02:49:28;;;;;;;31.52;21.80;;;;;;;8.28;91.18;71473.63;4967253;28;20110;-88
2021/03/20 02:52:10;;;;;;;34.80;22.60;;;;;;;8.37;91.13;71488.63;4957232;28;20527;-89
2021/03/20 02:55:05;;;;;;;27.65;19.98;;;;;;;8.21;90.53;71468.63;4987172;28;20019;-88
2021/03/20 02:57:49;;;;;;;36.90;22.15;;;;;;;6.41;91.28;71264.59;4956859;28;20031;-88
2021/03/20 03:00:51;;;;;;;38.33;27.20;;;;;;;7.92;91.69;71437.50;4972705;28;20034;-89
2021/03/20 03:03:20;;;;;;;47.53;30.90;;;;;;;7.35;94.05;71372.09;4920029;28;20129;-89
2021/03/20 03:05:50;;;;;;;54.55;38.10;;;;;;;7.30;94.72;71366.75;4965842;28;20027;-88
2021/03/20 03:08:24;;;;;;;60.15;44.15;;;;;;;6.08;94.91;71227.22;4961374;28;20064;-90
2021/03/20 03:10:59;;;;;;;67.03;45.95;;;;;;;6.71;94.92;71296.91;4976290;28;20038;-91
2021/03/20 03:13:30;;;;;;;80.60;54.30;;;;;;;5.67;93.99;71179.69;4976733;28;20048;-90
2021/03/20 03:16:11;;;;;;;80.28;56.72;;;;;;;7.22;93.57;71357.84;4980290;28;20093;-89
2021/03/20 03:18:55;;;;;;;72.88;54.35;;;;;;;6.59;93.12;71285.38;4963541;28;20026;-89
2021/03/20 03:21:26;;;;;;;74.43;50.70;;;;;;;7.16;91.75;71350.13;4966317;28;20033;-88
2021/03/20 03:23:53;;;;;;;74.75;53.95;;;;;;;6.95;90.41;71324.22;4987405;28;20062;-88
2021/03/20 03:26:22;;;;;;;71.82;47.95;;;;;;;8.12;89.79;71454.59;4988515;28;20025;-89
2021/03/20 03:28:58;;;;;;;70.15;49.17;;;;;;;6.99;90.46;71331.13;4964824;28;20026;-89
2021/03/20 03:31:36;;;;;;;68.93;50.45;;;;;;;7.63;90.24;71404.19;4964030;28;20047;-89
2021/03/20 03:34:16;;;;;;;55.17;42.92;;;;;;;7.64;90.13;71406.00;4963509;28;20091;-89
2021/03/20 03:37:11;;;;;;;73.97;48.78;;;;;;;8.02;90.90;71448.78;4961842;28;20019;-89
2021/03/20 03:39:53;;;;;;;67.35;48.90;;;;;;;6.36;90.25;71259.25;4976713;28;20031;-88
2021/03/20 03:42:24;;;;;;;59.63;44.10;;;;;;;8.10;90.46;71452.22;4960021;28;20889;-89
2021/03/20 03:44:52;;;;;;;;;;;;;;;7.94;90.09;71440.47;4973360;28;20019;-90
2021/03/20 03:47:24;;;;;;;63.95;48.40;;;;;;;7.42;90.81;71380.44;4956816;28;19914;-90
2021/03/20 03:49:54;;;;;;;61.85;46.47;;;;;;;6.37;91.60;71260.44;4953316;29;20033;-89
2021/03/20 03:52:22;;;;;;;71.43;48.20;;;;;;;7.30;92.73;71366.75;4948074;28;20035;-88
2021/03/20 03:54:49;;;;;;;59.40;43.63;;;;;;;7.35;92.98;71372.09;4954679;28;20046;-89
2021/03/20 03:57:51;;;;;;;63.70;45.17;;;;;;;7.64;92.73;71405.38;4972472;28;20126;-90
2021/03/20 04:00:27;;;;;;;62.38;45.95;;;;;;;7.69;92.60;71410.72;4960688;28;20031;-89
2021/03/20 04:03:20;;;;;;;60.47;44.35;;;;;;;6.83;92.08;71312.69;4956320;28;20023;-88
2021/03/20 04:06:11;;;;;;;72.88;46.30;;;;;;;7.77;92.39;71418.09;4949080;28;20039;-88
2021/03/20 04:09:10;;;;;;;56.80;43.83;;;;;;;7.69;92.55;71411.34;4956610;28;20031;-88
2021/03/20 04:12:25;;;;;;;58.72;44.72;;;;;;;7.61;91.61;71401.81;4913396;28;20043;-89
2021/03/20 04:15:20;;;;;;;66.07;47.10;;;;;;;7.79;92.02;71422.63;4960508;28;20038;-89
2021/03/20 04:17:59;;;;;;;65.50;48.95;;;;;;;7.88;92.02;71427.25;4956546;28;20058;-90
2021/03/20 04:20:39;;;;;;;70.32;50.65;;;;;;;7.85;91.29;71429.75;4965517;28;20058;-88
2021/03/20 04:23:17;;;;;;;69.50;48.17;;;;;;;6.71;92.18;71299.03;4956758;28;20046;-90
2021/03/20 04:25:49;;;;;;;65.38;44.55;;;;;;;7.67;92.48;71408.97;4956757;28;20039;-90
2021/03/20 04:28:53;;;;;;;59.58;43.90;;;;;;;7.00;93.19;71331.72;4983917;28;20027;-91
2021/03/20 04:31:34;;;;;;;61.95;45.08;;;;;;;7.38;93.55;71373.53;4969204;28;20062;-90
2021/03/20 04:34:04;;;;;;;53.97;41.47;;;;;;;7.30;94.36;71366.19;4985285;28;20035;-89
2021/03/20 04:36:45;;;;;;;60.58;36.05;;;;;;;6.07;94.52;71226.00;4941811;29;20015;-90
2021/03/20 04:39:16;;;;;;;55.47;37.25;;;;;;;7.04;94.51;71336.47;4956311;29;20036;-88
2021/03/20 04:41:43;;;;;;;58.92;40.80;;;;;;;6.33;94.72;71252.38;4973534;28;20078;-89
2021/03/20 04:44:11;;;;;;;68.20;39.97;;;;;;;6.89;95.63;71319.81;4959893;28;20062;-89
2021/03/20 04:46:39;;;;;;;67.88;44.88;;;;;;;6.93;95.73;71324.59;4990109;28;20098;-89
2021/03/20 04:49:33;;;;;;;63.50;43.10;;;;;;;7.16;95.20;71350.72;4986218;28;20425;-88
2021/03/20 04:52:16;;;;;;;61.85;43.63;;;;;;;6.24;94.52;71245.59;4976868;28;20035;-88
2021/03/20 04:54:43;;;;;;;66.32;43.38;;;;;;;7.19;95.15;71351.53;4960656;28;20031;-90
2021/03/20 04:57:33;;;;;;;73.00;44.47;;;;;;;7.70;94.89;71409.78;4970067;28;20033;-91
2021/03/20 05:00:06;;;;;;;61.58;45.70;;;;;;;7.48;93.68;71387.56;4955558;28;20496;-88
2021/03/20 05:02:59;;;;;;;66.35;45.67;;;;;;;4.82;94.11;71082.44;4974164;28;20049;-92
2021/03/20 05:05:35;;;;;;;71.28;48.60;;;;;;;7.33;94.67;71367.59;4974796;29;20090;-92
2021/03/20 05:08:10;;;;;;;62.50;46.25;;;;;;;7.25;94.61;71358.06;5003875;28;20093;-92
2021/03/20 05:10:40;;;;;;;77.28;50.22;;;;;;;7.16;95.57;71348.00;5014950;28;20062;-92
2021/03/20 05:13:36;;;;;;;73.28;50.58;;;;;;;7.50;94.41;71389.34;4993433;28;20030;-93
2021/03/20 05:16:26;;;;;;;70.70;49.55;;;;;;;6.71;95.34;71299.66;4983697;28;20023;-94
2021/03/20 05:18:56;;;;;;;88.28;53.40;;;;;;;6.11;94.52;71230.16;5000834;28;20018;-86
2021/03/20 05:21:32;;;;;;;85.05;53.70;;;;;;;7.26;95.15;71362.59;4956422;28;20062;-84
2021/03/20 05:24:00;;;;;;;82.10;52.10;;;;;;;7.29;94.58;71362.25;4959583;28;20073;-86
2021/03/20 05:26:29;;;;;;;74.82;49.08;;;;;;;7.29;94.03;71364.97;4958694;28;20041;-87
2021/03/20 05:28:56;;;;;;;73.28;48.78;;;;;;;7.10;92.49;71344.19;4958805;28;20377;-86
2021/03/20 05:31:23;;;;;;;70.68;46.25;;;;;;;6.46;91.88;71269.97;4962527;28;20053;-87
2021/03/20 05:33:51;;;;;;;71.03;49.25;;;;;;;7.74;91.96;71411.78;4967353;28;20034;-83
2021/03/20 05:36:19;;;;;;;69.28;48.25;;;;;;;7.25;91.35;71361.41;4972628;28;20035;-82
2021/03/20 05:38:48;;;;;;;71.13;45.10;;;;;;;6.63;90.82;71289.53;4986990;28;20041;-83
2021/03/20 05:42:02;;;;;;;70.95;46.50;;;;;;;7.62;91.47;71400.88;4956789;28;20035;-90
2021/03/20 05:44:43;;;;;;;69.35;46.53;;;;;;;7.01;91.34;71328.03;4935786;28;20051;-85
2021/03/20 05:47:32;;;;;;;72.20;43.55;;;;;;;7.43;91.71;71381.59;4985332;28;20068;-83
2021/03/20 05:50:33;;;;;;;67.47;44.17;;;;;;;7.67;92.39;71408.97;4951437;28;20043;-84
2021/03/20 05:53:06;;;;;;;78.60;48.10;;;;;;;7.69;91.50;71405.88;4952436;28;20050;-84
2021/03/20 05:56:25;;;;;;;63.20;43.63;;;;;;;8.08;89.47;71453.78;4970972;28;20026;-84
2021/03/20 05:59:07;;;;;;;65.75;43.13;;;;;;;7.99;90.95;71445.22;4940317;28;20122;-84
2021/03/20 06:01:53;;;;;;;72.88;45.97;;;;;;;8.26;88.87;71476.72;4965929;28;20044;-84
2021/03/20 06:04:54;;;;;;;52.78;40.80;;;;;;;8.17;86.99;71463.28;4956909;28;20037;-85
2021/03/20 06:07:46;;;;;;;55.17;40.30;;;;;;;8.72;87.04;71529.69;4963455;28;20126;-85
2021/03/20 06:10:13;;;;;;;56.58;42.15;;;;;;;9.09;85.43;71571.91;4957470;28;20041;-84
2021/03/20 06:13:14;;;;;;;54.50;41.75;;;;;;;9.25;85.21;71587.63;4952559;28;20027;-84
2021/03/20 06:16:16;;;;;;;59.72;42.92;;;;;;;8.92;84.98;71549.53;4944533;28;20126;-83
2021/03/20 06:19:11;;;;;;;57.53;38.63;;;;;;;8.69;86.65;71522.78;4942236;29;20062;-84
2021/03/20 06:22:15;;;;;;;58.70;41.88;;;;;;;8.54;87.59;71508.84;4968824;28;20058;-85
2021/03/20 06:25:17;;;;;;;57.53;40.67;;;;;;;8.16;87.21;71462.09;4956592;28;20046;-85
2021/03/20 06:27:49;;;;;;;64.28;42.47;;;;;;;8.15;86.65;71458.75;4947115;28;20117;-85
2021/03/20 06:30:28;;;;;;;59.92;40.92;;;;;;;8.54;87.55;71508.84;4950505;28;20161;-83
2021/03/20 06:33:04;;;;;;;61.10;40.33;;;;;;;8.80;86.34;71538.59;4947535;28;20527;-84
2021/03/20 06:36:01;;;;;;;57.28;37.80;;;;;;;8.33;86.85;71485.03;4973002;28;20476;-83
2021/03/20 06:38:46;;;;;;;57.75;40.75;;;;;;;8.29;87.36;71480.28;4982086;28;20119;-84
2021/03/20 06:41:46;;;;;;;63.05;43.20;;;;;;;7.74;88.00;71417.25;4958242;28;20120;-84
2021/03/20 06:44:31;;;;;;;59.53;41.15;;;;;;;7.96;88.37;71441.66;4960194;28;20121;-86
2021/03/20 06:46:59;;;;;;;61.90;42.72;;;;;;;7.80;88.93;71424.41;4981427;28;20097;-85
2021/03/20 06:49:36;;;;;;;71.40;44.65;;;;;;;7.13;89.75;71347.16;4963170;28;20030;-85
2021/03/20 06:52:06;;;;;;;59.35;41.50;;;;;;;7.62;89.58;71403.00;4973587;28;20049;-86
2021/03/20 06:54:34;;;;;;;64.78;44.38;;;;;;;7.16;89.31;71350.72;4958752;28;20049;-86
2021/03/20 06:57:01;;;;;;;68.55;46.58;;;;;;;7.47;90.25;71386.38;4959401;28;20035;-87
2021/03/20 06:59:28;;;;;;;66.40;45.90;;;;;;;6.44;90.49;71266.03;4956314;28;20077;-86
2021/03/20 07:02:04;;;;;;;76.78;46.83;;;;;;;7.23;90.84;71356.31;4955740;28;20039;-85
2021/03/20 07:04:40;;;;;;;67.70;44.33;;;;;;;7.21;91.08;71353.94;4952701;28;20042;-87
2021/03/20 07:07:16;;;;;;;69.00;45.15;;;;;;;6.85;91.12;71315.66;4963204;28;20018;-85
2021/03/20 07:09:47;;;;;;;74.55;46.55;;;;;;;6.52;91.65;71277.66;4965748;28;20093;-84
2021/03/20 07:12:17;;;;;;;72.40;45.97;;;;;;;6.63;89.82;71290.13;4960285;28;20039;-86
2021/03/20 07:14:54;;;;;;;72.87;47.10;;;;;;;6.81;90.72;71304.88;4962751;28;20031;-86
2021/03/20 07:17:24;;;;;;;73.90;48.33;;;;;;;6.68;91.42;71296.09;4965059;28;20054;-87
2021/03/20 07:20:14;;;;;;;76.60;47.28;;;;;;;5.85;91.92;71198.34;4949576;28;20556;-87
2021/03/20 07:22:49;;;;;;;73.32;51.60;;;;;;;6.80;91.53;71309.16;4944659;28;20077;-86
2021/03/20 07:25:25;;;;;;;78.60;50.88;;;;;;;6.64;92.27;71290.72;4970060;28;20027;-89
2021/03/20 07:28:06;;;;;;;83.72;53.85;;;;;;;6.25;91.76;71246.22;4957703;28;20387;-87
2021/03/20 07:30:38;;;;;;;83.70;52.75;;;;;;;6.81;91.45;71310.94;4974677;28;20042;-85
2021/03/20 07:33:40;;;;;;;76.70;48.78;;;;;;;6.82;92.11;71311.50;4969471;28;20415;-87
2021/03/20 07:36:30;;;;;;;78.38;49.95;;;;;;;6.95;91.29;71326.97;4955338;28;20400;-87
2021/03/20 07:39:15;;;;;;;73.35;49.40;;;;;;;7.18;90.54;71349.78;4960563;28;20042;-83
2021/03/20 07:41:59;;;;;;;79.68;47.33;;;;;;;6.84;91.42;71314.47;4973092;28;20073;-89
2021/03/20 07:44:29;;;;;;;77.75;48.63;;;;;;;6.89;91.99;71314.38;4959818;28;20451;-84
2021/03/20 07:46:57;;;;;;;81.47;50.83;;;;;;;5.88;92.17;71204.03;4978925;28;20475;-82
2021/03/20 07:49:33;;;;;;;71.50;46.25;;;;;;;6.42;91.97;71266.38;4972289;28;20031;-85
2021/03/20 07:52:05;;;;;;;67.25;43.35;;;;;;;7.23;89.80;71358.44;4978540;28;20058;-84
2021/03/20 07:54:38;;;;;;;80.55;46.70;;;;;;;7.07;89.78;71340.03;4952778;28;20037;-83
2021/03/20 07:57:17;;;;;;;63.20;44.33;;;;;;;6.08;90.01;71227.22;4960273;28;20031;-83
2021/03/20 07:59:52;;;;;;;75.35;48.83;;;;;;;7.06;90.43;71338.84;4972105;28;20404;-82
2021/03/20 08:02:34;;;;;;;64.07;45.85;;;;;;;6.19;90.17;71236.34;4979100;28;20035;-83
2021/03/20 08:05:08;;;;;;;65.78;45.65;;;;;;;7.01;90.58;71332.91;4954200;28;20147;-83
2021/03/20 08:07:40;;;;;;;75.05;45.83;;;;;;;7.11;91.21;71344.78;4978994;28;20131;-84
2021/03/20 08:10:16;;;;;;;66.50;42.47;;;;;;;7.03;90.24;71335.88;4974191;28;20039;-84
2021/03/20 08:12:55;;;;;;;64.00;42.72;;;;;;;5.93;90.44;71209.38;4984504;28;20027;-84
2021/03/20 08:15:38;;;;;;;61.45;41.97;;;;;;;6.06;90.84;71224.25;4961180;28;20023;-82
2021/03/20 08:18:38;;;;;;;70.38;42.33;;;;;;;7.04;91.39;71337.06;4983518;28;20039;-84
2021/03/20 08:21:26;;;;;;;58.03;41.95;;;;;;;7.02;91.89;71328.63;4960805;28;20031;-83
2021/03/20 08:24:25;;;;;;;54.50;39.25;;;;;;;7.18;91.58;71350.38;4984315;28;20639;-84
2021/03/20 08:27:25;;;;;;;60.55;38.28;;;;;;;7.09;91.21;71342.41;4975196;28;20439;-84
2021/03/20 08:30:13;;;;;;;58.05;41.03;;;;;;;7.09;91.76;71343.00;4956516;28;20042;-83
2021/03/20 08:33:17;;;;;;;60.55;40.30;;;;;;;7.25;91.27;71358.69;4950702;28;20055;-84
2021/03/20 08:35:55;;;;;;;59.75;40.67;;;;;;;7.18;91.48;71353.09;4943271;29;20062;-84
2021/03/20 08:38:45;;;;;;;58.72;43.08;;;;;;;6.83;90.69;71312.69;4949281;28;20073;-85
2021/03/20 08:41:24;;;;;;;;;;;;;;;7.44;89.28;71382.81;4946546;28;21114;-84
2021/03/20 08:44:16;;;;;;;59.63;38.88;;;;;;;6.16;89.84;71236.72;4954485;28;20426;-82
2021/03/20 08:46:52;;;;;;;63.08;40.92;;;;;;;7.32;88.76;71369.13;4944859;28;20043;-84
2021/03/20 08:49:19;;;;;;;54.97;38.15;;;;;;;7.33;89.63;71369.72;4954919;28;21855;-83
2021/03/20 08:52:17;;;;;;;56.53;39.28;;;;;;;7.27;90.25;71363.19;4950686;28;20455;-84
2021/03/20 08:54:50;;;;;;;54.15;38.42;;;;;;;7.41;89.15;71378.66;4942714;28;20476;-86
2021/03/20 08:57:36;;;;;;;53.40;38.85;;;;;;;5.98;88.62;71215.31;4966626;28;20039;-91
2021/03/20 09:00:32;;;;;;;59.17;39.78;;;;;;;7.17;89.42;71351.91;4958308;28;20399;-91
2021/03/20 09:03:18;;;;;;;59.38;40.85;;;;;;;6.77;88.45;71302.84;4952404;28;20392;-91
2021/03/20 09:05:58;;;;;;;51.20;38.22;;;;;;;7.42;87.98;71380.44;4959465;28;20086;-91
2021/03/20 09:08:42;;;;;;;50.33;36.03;;;;;;;6.01;86.98;71216.16;4961693;28;20063;-88
2021/03/20 09:11:39;;;;;;;51.60;34.85;;;;;;;7.67;87.09;71409.53;4955383;28;20484;-87
2021/03/20 09:14:37;;;;;;;44.78;31.77;;;;;;;6.55;86.87;71280.66;4945320;28;20028;-86
2021/03/20 09:17:55;;;;;;;41.33;30.35;;;;;;;7.55;87.16;71394.69;4952260;28;20050;-92
2021/03/20 09:20:39;;;;;;;47.97;32.40;;;;;;;4.61;88.43;71059.31;4971398;28;20043;-86
2021/03/20 09:23:35;;;;;;;49.45;33.22;;;;;;;6.03;88.36;71221.28;4951354;28;20117;-91
2021/03/20 09:26:14;;;;;;;52.90;33.50;;;;;;;4.00;89.38;70988.78;4960461;28;20074;-87
2021/03/20 09:29:15;;;;;;;55.45;33.28;;;;;;;6.16;89.50;71236.09;4955498;28;20031;-87
2021/03/20 09:32:01;;;;;;;50.97;32.92;;;;;;;4.89;89.26;71090.72;4971445;28;20055;-87
2021/03/20 09:34:40;;;;;;;47.25;34.15;;;;;;;5.01;89.87;71104.97;4981327;28;20054;-85
2021/03/20 09:37:20;;;;;;;52.58;35.47;;;;;;;6.50;89.87;71275.31;4961181;28;20058;-86
2021/03/20 09:39:55;;;;;;;53.60;34.85;;;;;;;3.95;89.09;70984.03;4951512;28;20062;-88
2021/03/20 09:42:28;;;;;;;55.10;33.03;;;;;;;6.33;90.43;71255.69;4959759;28;20039;-89
2021/03/20 09:45:07;;;;;;;55.10;30.80;;;;;;;4.55;89.33;71051.59;4964901;28;20022;-90
2021/03/20 09:47:49;;;;;;;52.42;31.15;;;;;;;6.46;89.61;71269.97;4967651;28;20476;-91
2021/03/20 09:50:39;;;;;;;51.92;34.42;;;;;;;6.39;90.00;71262.84;4956684;28;20125;-92
2021/03/20 09:53:17;;;;;;;49.53;31.57;;;;;;;6.44;88.72;71266.03;4951210;28;20116;-93
2021/03/20 09:55:47;;;;;;;58.75;29.30;;;;;;;6.50;88.62;71275.31;4959239;28;20046;-93
2021/03/20 09:58:23;;;;;;;58.60;29.10;;;;;;;6.51;87.89;71275.88;4962139;28;20480;-92
2021/03/20 10:00:57;;;;;;;49.47;25.58;;;;;;;6.40;87.49;71263.41;4970425;28;20031;-95
2021/03/20 10:03:41;;;;;;;52.67;26.38;;;;;;;6.42;86.70;71263.66;4967258;28;20518;-95
2021/03/20 10:06:17;;;;;;;52.42;26.02;;;;;;;6.52;86.99;71277.66;4963787;28;20034;-93
2021/03/20 10:08:59;;;;;;;54.47;27.08;;;;;;;4.28;86.93;71020.78;4963887;28;20034;-93
2021/03/20 10:12:04;;;;;;;55.63;28.25;;;;;;;6.26;87.77;71242.53;4960424;28;20031;-90
2021/03/20 10:14:50;;;;;;;69.32;28.85;;;;;;;6.38;87.70;71261.66;4915101;29;20032;-93
2021/03/20 10:17:20;;;;;;;67.57;35.55;;;;;;;6.42;87.80;71266.38;4947879;28;20044;-94
2021/03/20 10:19:54;;;;;;;74.65;34.10;;;;;;;5.55;87.04;71163.34;4968676;28;20011;-94
2021/03/20 10:22:35;;;;;;;62.65;38.38;;;;;;;3.59;87.64;70942.56;4978778;28;20018;-95
2021/03/20 10:25:16;;;;;;;79.90;43.30;;;;;;;3.79;87.42;70965.06;4978879;28;20075;-93
2021/03/20 10:28:16;;;;;;;;;;;;;;;6.28;88.10;71250.38;4954032;28;20043;-96
2021/03/20 10:31:16;;;;;;;93.22;50.42;;;;;;;6.37;88.41;71259.84;4987339;28;20069;-93
2021/03/20 10:33:58;;;;;;;102.80;51.97;;;;;;;6.56;88.14;71281.81;4962107;28;20039;-92
2021/03/20 10:36:39;;;;;;;106.68;56.70;;;;;;;6.50;87.91;71274.69;4954792;28;20031;-94
2021/03/20 10:39:28;;;;;;;107.88;55.10;;;;;;;5.79;88.05;71193.97;4968683;28;20025;-94
2021/03/20 10:42:05;;;;;;;102.35;60.30;;;;;;;6.23;88.40;71243.84;4943612;28;20039;-93
2021/03/20 10:44:41;;;;;;;113.35;54.75;;;;;;;6.01;88.45;71219.47;4954768;29;20041;-93
2021/03/20 10:47:36;;;;;;;104.20;54.80;;;;;;;6.31;88.61;71253.34;4972148;28;20062;-93
2021/03/20 10:50:13;;;;;;;110.13;56.05;;;;;;;6.25;88.99;71246.22;4957879;28;20027;-90
2021/03/20 10:52:43;;;;;;;122.90;56.33;;;;;;;4.97;89.08;71100.22;4941445;28;20055;-90
2021/03/20 10:55:26;;;;;;;96.60;50.43;;;;;;;4.84;88.33;71082.69;4966608;28;20030;-93
2021/03/20 10:57:53;;;;;;;119.72;61.78;;;;;;;5.43;89.28;71152.41;4947790;28;20090;-90
2021/03/20 11:00:28;;;;;;;129.63;63.20;;;;;;;6.11;89.29;71230.78;4953919;28;20070;-91
2021/03/20 11:03:21;;;;;;;122.72;63.80;;;;;;;5.63;90.00;71174.97;4938285;29;20051;-90
2021/03/20 11:05:50;;;;;;;123.18;65.82;;;;;;;5.86;90.12;71198.94;4965720;28;20077;-95
2021/03/20 11:08:27;;;;;;;128.45;67.55;;;;;;;6.13;89.85;71233.13;4935473;29;20086;-95
2021/03/20 11:11:28;;;;;;;124.07;65.63;;;;;;;5.10;90.26;71114.47;4962827;29;20027;-96
2021/03/20 11:14:07;;;;;;;128.18;65.85;;;;;;;4.59;89.66;71056.34;4950043;28;20035;-96
2021/03/20 11:16:52;;;;;;;126.90;68.90;;;;;;;3.55;90.08;70937.81;4960372;28;20026;-95
2021/03/20 11:19:21;;;;;;;128.48;71.15;;;;;;;5.01;89.91;71104.97;4945202;29;20426;-95
2021/03/20 11:21:59;;;;;;;126.47;64.03;;;;;;;4.74;89.86;71071.41;4962858;28;20022;-95
2021/03/20 11:24:30;;;;;;;135.65;70.25;;;;;;;3.66;89.76;70950.25;4965274;28;20440;-94
2021/03/20 11:26:57;;;;;;;122.10;69.78;;;;;;;4.60;89.81;71058.13;4947359;29;20031;-94
2021/03/20 11:29:29;;;;;;;132.50;73.90;;;;;;;3.91;89.70;70979.28;4947916;28;20039;-94
2021/03/20 11:32:03;;;;;;;134.93;74.68;;;;;;;4.46;90.24;71041.53;4951412;28;20450;-95
2021/03/20 11:34:41;;;;;;;145.15;83.43;;;;;;;5.48;90.81;71158.94;4973578;28;20170;-95
2021/03/20 11:38:03;;;;;;;148.25;80.95;;;;;;;6.04;90.62;71222.47;4982105;28;20019;-96
2021/03/20 11:41:11;;;;;;;136.15;74.03;;;;;;;6.02;90.35;71220.09;4996820;28;20058;-96
2021/03/20 11:54:04;;;;;;;136.38;71.30;;;;;;;4.69;89.75;71067.63;4954976;28;20131;-94
2021/03/20 11:56:35;;;;;;;140.40;73.97;;;;;;;5.50;89.57;71160.13;4933378;29;20043;-93
2021/03/20 11:59:31;;;;;;;137.93;75.07;;;;;;;6.34;88.87;71253.56;4935686;29;20019;-93
2021/03/20 12:01:58;;;;;;;146.43;76.30;;;;;;;6.26;89.64;71247.38;4930396;28;20539;-92
2021/03/20 12:04:29;;;;;;;126.07;69.43;;;;;;;5.31;88.29;71136.66;4929240;29;20027;-92
2021/03/20 12:07:20;;;;;;;123.40;71.78;;;;;;;6.47;88.10;71271.16;4924310;29;20489;-93
2021/03/20 12:09:48;;;;;;;133.27;71.00;;;;;;;5.46;88.88;71155.97;4926688;29;20519;-93
2021/03/20 12:12:15;;;;;;;121.30;69.65;;;;;;;6.11;89.13;71230.78;4925449;28;20497;-90
2021/03/20 12:14:48;;;;;;;128.07;72.70;;;;;;;6.29;88.75;71250.94;4923102;29;20027;-92
2021/03/20 12:17:31;;;;;;;134.25;72.18;;;;;;;3.68;88.69;70949.91;4937560;28;20039;-92
2021/03/20 12:20:08;;;;;;;125.03;69.78;;;;;;;6.04;90.56;71222.47;4956255;28;20055;-93
2021/03/20 12:22:52;;;;;;;120.82;69.70;;;;;;;5.82;88.84;71194.78;4970738;28;20046;-90
2021/03/20 12:25:57;;;;;;;126.57;70.97;;;;;;;5.45;89.33;71154.78;4963712;28;20125;-91
2021/03/20 12:28:37;;;;;;;128.35;69.38;;;;;;;5.27;89.74;71134.03;4937867;28;20042;-92
2021/03/20 12:31:17;;;;;;;111.60;67.03;;;;;;;6.12;89.89;71231.94;4992705;28;20057;-91